createdAt,value
2022-09-05T01:18:50.360Z,97640.59
2022-09-05T01:26:34.052Z,97640.09
2022-09-05T01:51:36.248Z,97668.28
2022-09-05T01:58:58.008Z,97669.97
2022-09-05T02:10:07.137Z,97677.34
2022-09-05T02:13:59.534Z,97671.56
2022-09-05T02:20:34.841Z,97660.22
2022-09-05T02:24:10.554Z,97660.66
2022-09-05T02:31:11.558Z,97659.88
2022-09-05T02:34:23.754Z,97658.47
2022-09-05T02:38:58.043Z,97659.09
2022-09-05T02:45:10.843Z,97662.44
2022-09-05T02:48:27.970Z,97661.66
2022-09-05T02:57:27.085Z,97678.47
2022-09-05T02:57:43.492Z,97677.84
2022-09-05T03:09:09.856Z,97666.34
2022-09-05T03:12:38.322Z,97663.03
2022-09-05T03:15:54.961Z,97672.34
2022-09-05T03:19:14.970Z,97666.81
2022-09-05T03:29:13.217Z,97661.88
2022-09-05T03:32:24.586Z,97662.13
2022-09-05T03:35:20.611Z,97661.72
2022-09-05T03:38:33.531Z,97668.34
2022-09-05T03:41:31.805Z,97676.00
2022-09-05T03:44:27.723Z,97669.19
2022-09-05T03:47:20.547Z,97671.28
2022-09-05T03:52:38.106Z,97674.38
2022-09-05T03:57:16.672Z,97674.75
2022-09-05T03:57:27.375Z,97672.50
2022-09-05T04:00:10.924Z,97679.13
2022-09-05T04:08:05.988Z,97677.06
2022-09-05T04:08:16.943Z,97675.44
2022-09-05T04:09:43.492Z,97667.78
2022-09-05T04:12:30.736Z,97673.56
2022-09-05T04:15:35.418Z,97678.53
2022-09-05T04:18:33.757Z,97679.81
2022-09-05T04:21:24.034Z,97682.91
2022-09-05T04:24:16.870Z,97678.59
2022-09-05T04:27:07.557Z,97678.19
2022-09-05T04:30:38.020Z,97675.91
2022-09-05T04:33:36.502Z,97686.25
2022-09-05T04:36:28.369Z,97685.63
2022-09-05T04:39:17.915Z,97691.41
2022-09-05T04:42:04.896Z,97681.09
2022-09-05T04:44:56.400Z,97691.22
2022-09-05T04:47:52.317Z,97689.75
2022-09-05T04:50:56.358Z,97696.41
2022-09-05T04:54:04.050Z,97688.75
2022-09-05T04:56:51.124Z,97682.75
2022-09-05T05:04:02.353Z,97692.03
2022-09-05T05:06:11.746Z,97690.63
2022-09-05T05:09:15.493Z,97687.13
2022-09-05T05:17:55.549Z,97693.53
2022-09-05T05:18:12.356Z,97690.44
2022-09-05T05:18:56.089Z,97692.25
2022-09-05T05:21:49.440Z,97693.53
2022-09-05T05:24:36.701Z,97694.53
2022-09-05T05:27:23.452Z,97686.91
2022-09-05T05:30:12.021Z,97695.16
2022-09-05T05:33:00.417Z,97692.69
2022-09-05T05:35:48.380Z,97688.34
2022-09-05T05:38:38.843Z,97692.88
2022-09-05T05:41:27.538Z,97689.59
2022-09-05T05:44:18.042Z,97688.78
2022-09-05T05:47:31.953Z,97701.34
2022-09-05T05:50:19.637Z,97694.34
2022-09-05T05:53:06.306Z,97705.28
2022-09-05T05:55:58.170Z,97708.16
2022-09-05T05:58:54.145Z,97710.41
2022-09-05T06:01:57.077Z,97708.56
2022-09-05T06:05:04.193Z,97711.69
2022-09-05T06:09:15.665Z,97709.41
2022-09-05T06:14:57.129Z,97705.91
2022-09-05T06:14:57.620Z,97707.75
2022-09-05T06:18:07.211Z,97716.00
2022-09-05T06:22:10.651Z,97713.50
2022-09-05T06:24:21.385Z,97716.03
2022-09-05T06:27:14.308Z,97719.53
2022-09-05T06:30:07.754Z,97714.75
2022-09-05T06:33:03.087Z,97719.94
2022-09-05T06:36:04.188Z,97716.63
2022-09-05T06:38:54.008Z,97715.78
2022-09-05T06:41:48.777Z,97715.19
2022-09-05T06:44:44.236Z,97725.91
2022-09-05T06:47:34.388Z,97732.50
2022-09-05T06:50:23.856Z,97729.19
2022-09-05T06:53:19.689Z,97730.84
2022-09-05T06:56:15.778Z,97737.84
2022-09-05T06:59:19.326Z,97730.38
2022-09-05T07:02:13.705Z,97731.16
2022-09-05T07:05:36.842Z,97734.69
2022-09-05T07:08:34.144Z,97744.38
2022-09-05T07:11:41.903Z,97735.72
2022-09-05T07:14:32.107Z,97742.47
2022-09-05T07:17:41.101Z,97740.38
2022-09-05T07:21:17.080Z,97741.16
2022-09-05T07:24:09.276Z,97744.66
2022-09-05T07:27:15.033Z,97750.63
2022-09-05T07:30:04.094Z,97750.13
2022-09-05T07:32:57.236Z,97755.50
2022-09-05T07:35:51.097Z,97753.38
2022-09-05T07:38:52.200Z,97755.59
2022-09-05T07:41:51.219Z,97758.06
2022-09-05T07:44:44.075Z,97761.09
2022-09-05T07:47:34.761Z,97754.16
2022-09-05T07:52:44.483Z,97747.25
2022-09-05T07:57:03.983Z,97752.22
2022-09-05T07:57:08.355Z,97752.31
2022-09-05T07:59:53.061Z,97743.63
2022-09-05T08:02:46.477Z,97740.88
2022-09-05T08:05:48.911Z,97744.09
2022-09-05T08:09:21.295Z,97731.56
2022-09-05T08:12:09.628Z,97741.81
2022-09-05T08:15:10.254Z,97738.81
2022-09-05T08:18:07.005Z,97744.16
2022-09-05T08:20:55.209Z,97751.09
2022-09-05T08:23:49.953Z,97748.31
2022-09-05T08:26:47.055Z,97743.44
2022-09-05T08:29:35.262Z,97748.69
2022-09-05T08:32:35.376Z,97746.03
2022-09-05T08:35:24.858Z,97745.03
2022-09-05T08:38:11.681Z,97738.72
2022-09-05T08:40:59.556Z,97740.50
2022-09-05T08:46:39.914Z,97736.09
2022-09-05T08:47:24.900Z,97737.16
2022-09-05T08:50:15.333Z,97724.16
2022-09-05T08:53:45.807Z,97724.88
2022-09-05T08:56:32.177Z,97726.19
2022-09-05T08:59:32.014Z,97717.13
2022-09-05T09:02:46.502Z,97714.09
2022-09-05T09:06:12.653Z,97718.44
2022-09-05T09:09:06.866Z,97706.00
2022-09-05T09:11:56.341Z,97710.59
2022-09-05T09:14:49.001Z,97710.47
2022-09-05T09:17:35.704Z,97710.09
2022-09-05T09:20:27.031Z,97712.19
2022-09-05T09:23:32.402Z,97705.13
2022-09-05T09:26:20.997Z,97703.66
2022-09-05T09:29:12.713Z,97694.34
2022-09-05T09:32:09.647Z,97702.69
2022-09-05T09:34:57.177Z,97694.53
2022-09-05T09:37:59.646Z,97695.22
2022-09-05T09:41:00.631Z,97695.19
2022-09-05T09:43:53.378Z,97694.53
2022-09-05T09:46:44.531Z,97699.63
2022-09-05T09:49:34.379Z,97691.09
2022-09-05T09:52:40.182Z,97694.47
2022-09-05T09:55:50.167Z,97691.94
2022-09-05T09:58:48.553Z,97692.31
2022-09-05T10:01:44.465Z,97687.09
2022-09-05T10:10:36.428Z,97682.34
2022-09-05T10:10:53.993Z,97687.59
2022-09-05T10:11:49.937Z,97680.09
2022-09-05T10:14:47.783Z,97685.41
2022-09-05T10:17:43.187Z,97681.78
2022-09-05T10:20:56.893Z,97692.69
2022-09-05T10:23:58.399Z,97689.22
2022-09-05T10:26:47.959Z,97679.78
2022-09-05T10:35:10.444Z,97681.72
2022-09-05T10:35:40.694Z,97676.47
2022-09-05T10:38:27.392Z,97676.63
2022-09-05T10:41:22.579Z,97664.47
2022-09-05T10:44:10.829Z,97670.78
2022-09-05T10:47:10.178Z,97658.88
2022-09-05T10:50:05.903Z,97662.28
2022-09-05T10:53:04.575Z,97663.75
2022-09-05T10:55:56.858Z,97658.91
2022-09-05T11:01:12.662Z,97642.41
2022-09-05T11:02:26.177Z,97651.19
2022-09-05T11:05:25.546Z,97642.03
2022-09-05T11:08:12.231Z,97636.94
2022-09-05T11:11:17.231Z,97631.00
2022-09-05T11:14:33.059Z,97633.53
2022-09-05T11:17:46.089Z,97621.94
2022-09-05T11:20:48.545Z,97625.25
2022-09-05T11:23:47.093Z,97623.66
2022-09-05T11:26:51.386Z,97617.19
2022-09-05T11:29:53.690Z,97620.47
2022-09-05T11:38:13.208Z,97616.41
2022-09-05T11:39:55.183Z,97618.88
2022-09-05T11:39:59.339Z,97610.50
2022-09-05T11:42:34.787Z,97604.53
2022-09-05T11:45:27.612Z,97604.31
2022-09-05T11:48:33.257Z,97604.03
2022-09-05T11:51:40.095Z,97602.94
2022-09-05T11:54:51.166Z,97602.69
2022-09-05T11:57:46.835Z,97607.06
2022-09-05T12:00:37.095Z,97603.75
2022-09-05T12:04:01.123Z,97592.91
2022-09-05T12:10:46.253Z,97586.63
2022-09-05T12:13:52.067Z,97581.97
2022-09-05T12:16:43.584Z,97576.50
2022-09-05T12:19:49.401Z,97569.38
2022-09-05T12:22:52.281Z,97578.91
2022-09-05T12:27:38.515Z,97574.50
2022-09-05T12:29:34.817Z,97572.84
2022-09-05T12:34:34.212Z,97567.91
2022-09-05T12:40:55.920Z,97573.84
2022-09-05T12:41:40.968Z,97584.47
2022-09-05T12:42:19.951Z,97570.00
2022-09-05T12:45:37.103Z,97563.16
2022-09-05T12:48:24.791Z,97571.84
2022-09-05T12:51:46.081Z,97564.44
2022-09-05T12:54:41.877Z,97562.19
2022-09-05T13:02:34.829Z,97550.72
2022-09-05T13:03:04.679Z,97558.56
2022-09-05T13:04:16.920Z,97556.03
2022-09-05T13:07:23.157Z,97555.13
2022-09-05T13:14:50.139Z,97550.41
2022-09-05T13:14:55.028Z,97541.31
2022-09-05T13:16:43.359Z,97544.53
2022-09-05T13:19:36.478Z,97542.59
2022-09-05T13:22:23.359Z,97545.78
2022-09-05T13:25:13.150Z,97538.88
2022-09-05T13:28:04.042Z,97539.34
2022-09-05T13:37:44.788Z,97542.06
2022-09-05T13:38:02.656Z,97532.16
2022-09-05T13:38:29.096Z,97523.34
2022-09-05T13:40:38.828Z,97520.56
2022-09-05T13:43:45.594Z,97522.44
2022-09-05T13:46:58.544Z,97520.72
2022-09-05T13:49:55.581Z,97519.25
2022-09-05T13:53:15.354Z,97513.91
2022-09-05T13:56:34.977Z,97518.34
2022-09-05T13:59:25.140Z,97513.25
2022-09-05T14:03:29.505Z,97505.16
2022-09-05T14:05:50.627Z,97497.06
2022-09-05T14:09:34.604Z,97498.63
2022-09-05T14:11:55.498Z,97484.00
2022-09-05T14:17:55.487Z,97475.75
2022-09-05T14:21:10.763Z,97482.53
2022-09-05T14:24:34.300Z,97479.13
2022-09-05T14:27:32.757Z,97467.75
2022-09-05T14:32:31.646Z,97478.06
2022-09-05T14:37:41.894Z,97469.06
2022-09-05T14:37:46.367Z,97474.88
2022-09-05T14:40:47.324Z,97470.38
2022-09-05T14:43:54.877Z,97469.78
2022-09-05T14:46:57.484Z,97464.31
2022-09-05T14:50:04.956Z,97458.31
2022-09-05T14:59:44.885Z,97458.31
2022-09-05T15:02:53.744Z,97459.94
2022-09-05T15:06:36.004Z,97459.44
2022-09-05T15:11:25.413Z,97452.31
2022-09-05T15:12:39.691Z,97450.69
2022-09-05T15:15:36.530Z,97456.75
2022-09-05T15:18:25.235Z,97446.88
2022-09-05T15:21:35.153Z,97451.06
2022-09-05T15:24:30.268Z,97432.78
2022-09-05T15:27:50.636Z,97446.78
2022-09-05T15:30:40.839Z,97441.59
2022-09-05T15:33:41.159Z,97430.63
2022-09-05T15:37:20.760Z,97428.00
2022-09-05T15:40:23.145Z,97432.97
2022-09-05T15:46:42.033Z,97430.31
2022-09-05T15:49:48.531Z,97416.94
2022-09-05T15:52:35.783Z,97413.97
2022-09-05T15:55:26.355Z,97405.53
2022-09-05T15:58:13.063Z,97411.09
2022-09-05T16:01:10.584Z,97411.19
2022-09-05T16:10:34.100Z,97405.28
2022-09-05T16:11:20.275Z,97401.00
2022-09-05T16:23:18.886Z,97412.91
2022-09-05T16:23:29.698Z,97417.66
2022-09-05T16:23:41.406Z,97411.97
2022-09-05T16:26:29.296Z,97415.28
2022-09-05T16:29:23.875Z,97399.75
2022-09-05T16:32:26.483Z,97406.63
2022-09-05T16:35:13.757Z,97402.59
2022-09-05T16:38:07.119Z,97401.25
2022-09-05T16:40:57.934Z,97390.91
2022-09-05T16:43:46.921Z,97393.09
2022-09-05T16:46:42.105Z,97392.06
2022-09-05T16:49:41.864Z,97394.09
2022-09-05T16:52:35.489Z,97384.31
2022-09-05T16:55:31.601Z,97393.41
2022-09-05T16:58:18.226Z,97386.88
2022-09-05T17:01:08.106Z,97383.94
2022-09-05T17:04:16.101Z,97392.50
2022-09-05T17:07:06.227Z,97387.91
2022-09-05T17:09:52.901Z,97397.56
2022-09-05T17:12:39.634Z,97387.00
2022-09-05T17:15:28.247Z,97399.66
2022-09-05T17:18:22.733Z,97396.16
2022-09-05T17:21:10.957Z,97390.22
2022-09-05T17:29:15.847Z,97391.09
2022-09-05T17:29:32.367Z,97382.13
2022-09-05T17:33:46.385Z,97382.84
2022-09-05T17:36:42.777Z,97385.59
2022-09-05T17:39:46.742Z,97384.03
2022-09-05T17:42:36.475Z,97397.75
2022-09-05T17:45:23.195Z,97386.41
2022-09-05T17:48:13.304Z,97398.25
2022-09-05T17:51:02.510Z,97402.66
2022-09-05T17:54:08.454Z,97403.22
2022-09-05T17:56:55.134Z,97401.94
2022-09-05T17:59:43.131Z,97406.31
2022-09-05T18:02:36.793Z,97406.06
2022-09-05T18:05:47.131Z,97413.47
2022-09-05T18:09:05.682Z,97412.91
2022-09-05T18:13:13.224Z,97417.03
2022-09-05T18:19:32.574Z,97426.06
2022-09-05T18:23:15.769Z,97422.28
2022-09-05T18:26:01.552Z,97430.22
2022-09-05T18:29:00.611Z,97437.06
2022-09-05T18:31:51.161Z,97430.53
2022-09-05T18:34:45.726Z,97426.50
2022-09-05T18:37:36.318Z,97434.69
2022-09-05T18:40:44.515Z,97425.16
2022-09-05T18:44:13.667Z,97425.19
2022-09-05T18:47:03.408Z,97427.69
2022-09-05T18:50:26.638Z,97425.00
2022-09-05T18:53:10.560Z,97426.63
2022-09-05T18:56:19.662Z,97433.75
2022-09-05T18:59:24.134Z,97426.69
2022-09-05T19:02:50.515Z,97431.59
2022-09-05T19:05:40.813Z,97426.19
2022-09-05T19:08:48.542Z,97429.47
2022-09-05T19:11:53.290Z,97424.88
2022-09-05T19:14:50.771Z,97428.41
2022-09-05T19:17:38.777Z,97424.91
2022-09-05T19:20:32.594Z,97429.31
2022-09-05T19:23:27.029Z,97427.38
2022-09-05T19:26:16.777Z,97432.88
2022-09-05T19:36:52.841Z,97428.78
2022-09-05T19:37:09.789Z,97431.53
2022-09-05T19:37:10.675Z,97425.03
2022-09-05T19:38:38.336Z,97425.03
2022-09-05T19:47:28.176Z,97433.75
2022-09-05T19:47:44.915Z,97423.16
2022-09-05T19:48:04.037Z,97422.06
2022-09-05T19:50:58.312Z,97426.41
2022-09-05T19:54:05.027Z,97421.81
2022-09-05T19:56:55.750Z,97416.38
2022-09-05T19:59:43.913Z,97419.66
2022-09-05T20:02:33.117Z,97414.19
2022-09-05T20:05:20.140Z,97416.69
2022-09-05T20:08:08.434Z,97411.22
2022-09-05T20:11:04.749Z,97414.78
2022-09-05T20:13:53.673Z,97402.81
2022-09-05T20:16:40.954Z,97411.53
2022-09-05T20:19:34.560Z,97415.09
2022-09-05T20:22:49.805Z,97408.53
2022-09-05T20:25:39.999Z,97415.63
2022-09-05T20:28:29.864Z,97406.66
2022-09-05T20:31:19.390Z,97401.16
2022-09-05T20:34:14.933Z,97413.69
2022-09-05T20:43:08.717Z,97411.81
2022-09-05T20:43:15.053Z,97412.06
2022-09-05T20:43:50.202Z,97411.78
2022-09-05T20:49:28.727Z,97418.34
2022-09-05T20:54:19.411Z,97413.69
2022-09-05T20:54:21.962Z,97413.72
2022-09-05T20:56:08.445Z,97410.16
2022-09-05T20:58:58.420Z,97411.78
2022-09-05T21:01:54.185Z,97410.69
2022-09-05T21:04:41.997Z,97420.72
2022-09-05T21:07:38.992Z,97417.47
2022-09-05T21:10:26.660Z,97412.28
2022-09-05T21:13:16.887Z,97419.38
2022-09-05T21:16:13.381Z,97417.16
2022-09-05T21:19:00.147Z,97419.06
2022-09-05T21:21:50.199Z,97408.16
2022-09-05T21:24:36.922Z,97405.44
2022-09-05T21:27:24.288Z,97407.88
2022-09-05T21:30:26.065Z,97410.53
2022-09-05T21:33:18.990Z,97416.78
2022-09-05T21:36:05.793Z,97428.47
2022-09-05T21:38:52.494Z,97432.81
2022-09-05T21:41:39.179Z,97421.91
2022-09-05T21:47:34.799Z,97433.56
2022-09-05T21:47:52.403Z,97437.09
2022-09-05T21:50:40.880Z,97432.69
2022-09-05T21:57:31.575Z,97423.44
2022-09-05T21:59:24.479Z,97432.38
2022-09-05T21:59:55.736Z,97434.00
2022-09-05T22:02:48.966Z,97435.56
2022-09-05T22:05:36.166Z,97437.44
2022-09-05T22:08:22.932Z,97435.25
2022-09-05T22:11:10.481Z,97433.06
2022-09-05T22:13:58.984Z,97438.47
2022-09-05T22:16:47.347Z,97436.25
2022-09-05T22:19:37.229Z,97445.19
2022-09-05T22:22:24.772Z,97442.44
2022-09-05T22:25:14.298Z,97438.59
2022-09-05T22:28:06.351Z,97434.78
2022-09-05T22:30:53.258Z,97428.50
2022-09-05T22:33:40.174Z,97423.84
2022-09-05T22:36:26.931Z,97426.25
2022-09-05T22:39:15.259Z,97423.25
2022-09-05T22:42:14.130Z,97415.91
2022-09-05T22:45:00.952Z,97413.97
2022-09-05T22:47:50.794Z,97414.72
2022-09-05T22:50:37.749Z,97415.28
2022-09-05T22:53:24.445Z,97417.66
2022-09-05T22:56:11.211Z,97404.03
2022-09-05T22:58:58.004Z,97404.81
2022-09-05T23:01:44.774Z,97400.19
2022-09-05T23:04:31.564Z,97405.28
2022-09-05T23:07:18.303Z,97401.47
2022-09-05T23:10:05.189Z,97390.56
2022-09-05T23:12:51.895Z,97399.19
2022-09-05T23:15:38.766Z,97401.06
2022-09-05T23:18:25.763Z,97387.44
2022-09-05T23:21:13.113Z,97391.75
2022-09-05T23:23:59.867Z,97397.13
2022-09-05T23:26:46.626Z,97397.63
2022-09-05T23:29:33.406Z,97393.81
2022-09-05T23:32:22.056Z,97400.00
2022-09-05T23:35:08.912Z,97406.16
2022-09-05T23:37:55.691Z,97393.38
2022-09-05T23:40:42.437Z,97392.22
2022-09-05T23:43:29.482Z,97388.38
2022-09-05T23:46:17.372Z,97393.50
2022-09-05T23:49:04.189Z,97386.94
2022-09-05T23:51:54.199Z,97383.13
2022-09-05T23:54:40.992Z,97381.97
2022-09-05T23:57:27.799Z,97373.78
